map of HKY home
HKY - Airport
Location
City:  Hickory, North Carolina, United States
Name:Hickory Regional
ICAO:KHKY
IATA:HKY
FAA LID:HKY

Details
Type:Airport (Part 139 Class I)
Use:Public/Civil
Latitude:3544'28"N (35.741146)
Longitude:8123'22"W (-81.389548)
Datum:WGS 1984
Elevation:1189 ft (362 m)
Variation:7.54W (WMM2015 magnetic declination)
-0.06 annual change
Runways:2
Longest:6400 × 150 ft (1951 × 45.5 m), paved

Time
Time Zone:UTC-5 (DST-4)
Local Time:

Weather
METAR:KHKY 192053Z 19006KT 10SM CLR 17/07 A3001 RMK AO2 SLP153 T01670067 56019
TAF:KHKY 191724Z 1918/2018 21005KT P6SM FEW170
FM200100 21004KT P6SM BKN050
FM201100 30004KT P6SM SCT050

Related Locations
Nearby:
Farthest:YAUG: 11502 mi / 18510 km
Augusta [Augusta Airport], WA, AU

Find:

   beyond  
but within

Other Information
Maps:
NOTAMs:
Links:
Sources:

  
  • flag of United States
  • flag of North Carolina
  

Airport Diagram

Airport diagram for HKY

Airport diagram PDF

Sectional Chart

Flight Planning
at skyvector.com

Satellite Image

Google Maps Satellite view

 

Copyright © 2004-2018 Karl L. Swartz. All rights reserved.
The Great Circle Mapper name and logo are trademarks of the Great Circle Mapper.
All other trademarks mentioned herein belong to their respective owners.
Please see credits for attibutions and further copyright information.

  Follow gcmap on Facebook Follow gcmap on Twitter Follow gcmap on Google+ GCmap on LinkedIn

hCard Microformat

Geo Microformat